createdAt,value
2023-01-28T00:00:59.375Z,100670.75
2023-01-28T00:03:26.406Z,100746.47
2023-01-28T00:06:01.548Z,100747.94
2023-01-28T00:08:28.524Z,100739.16
2023-01-28T00:10:58.309Z,100717.84
2023-01-28T00:13:25.219Z,100742.06
2023-01-28T00:15:59.324Z,100745.28
2023-01-28T00:18:30.156Z,100716.44
2023-01-28T00:21:02.664Z,100740.84
2023-01-28T00:23:31.532Z,100749.06
2023-01-28T00:26:03.494Z,100745.50
2023-01-28T00:28:30.542Z,100722.34
2023-01-28T00:30:57.573Z,100743.88
2023-01-28T00:33:24.954Z,100734.66
2023-01-28T00:36:00.429Z,100737.66
2023-01-28T00:38:28.501Z,100751.28
2023-01-28T00:40:55.980Z,100749.63
2023-01-28T00:43:23.741Z,100722.22
2023-01-28T00:45:50.753Z,100736.66
2023-01-28T00:48:17.710Z,100743.19
2023-01-28T00:50:46.133Z,100754.41
2023-01-28T00:53:14.282Z,100751.97
2023-01-28T00:55:41.274Z,100757.19
2023-01-28T00:58:09.076Z,100737.09
2023-01-28T01:00:36.129Z,100758.28
2023-01-28T01:03:03.122Z,100758.84
2023-01-28T01:05:30.120Z,100699.16
2023-01-28T01:07:57.096Z,100759.97
2023-01-28T01:10:24.103Z,100761.19
2023-01-28T01:12:51.081Z,100757.53
2023-01-28T01:15:20.316Z,100754.19
2023-01-28T01:17:49.411Z,100750.66
2023-01-28T01:20:22.767Z,100766.97
2023-01-28T01:22:51.576Z,100748.88
2023-01-28T01:25:19.222Z,100758.22
2023-01-28T01:27:51.087Z,100752.88
2023-01-28T01:30:18.706Z,100771.53
2023-01-28T01:32:45.749Z,100768.19
2023-01-28T01:35:13.102Z,100764.84
2023-01-28T01:37:40.312Z,100747.75
2023-01-28T01:40:08.070Z,100739.31
2023-01-28T01:42:35.085Z,100759.84
2023-01-28T01:45:24.054Z,100742.47
2023-01-28T01:48:11.120Z,100754.28
2023-01-28T01:50:53.651Z,100755.41
2023-01-28T01:53:23.816Z,100760.97
2023-01-28T01:55:56.104Z,100731.47
2023-01-28T01:58:27.675Z,100753.84
2023-01-28T02:00:54.693Z,100749.88
2023-01-28T02:03:34.159Z,100754.44
2023-01-28T02:06:01.414Z,100753.88
2023-01-28T02:08:28.490Z,100757.13
2023-01-28T02:11:01.501Z,100764.63
2023-01-28T02:13:32.787Z,100753.97
2023-01-28T02:16:02.221Z,100767.31
2023-01-28T02:18:29.358Z,100769.53
2023-01-28T02:20:56.263Z,100768.53
2023-01-28T02:23:42.054Z,100771.31
2023-01-28T02:26:18.145Z,100760.53
2023-01-28T02:29:00.164Z,100767.75
2023-01-28T02:31:43.272Z,100754.44
2023-01-28T02:34:34.956Z,100768.88
2023-01-28T02:37:43.780Z,100766.66
2023-01-28T02:40:14.815Z,100772.03
2023-01-28T02:42:44.710Z,100771.84
2023-01-28T02:45:26.001Z,100778.16
2023-01-28T02:47:59.378Z,100780.38
2023-01-28T02:50:39.958Z,100779.94
2023-01-28T02:53:28.458Z,100790.25
2023-01-28T02:56:07.613Z,100793.69
2023-01-28T02:58:56.108Z,100793.69
2023-01-28T03:01:39.071Z,100771.72
2023-01-28T03:04:19.605Z,100796.59
2023-01-28T03:06:53.787Z,100779.38
2023-01-28T03:09:23.938Z,100781.69
2023-01-28T03:12:21.583Z,100799.56
2023-01-28T03:15:17.226Z,100792.81
2023-01-28T03:18:05.346Z,100777.72
2023-01-28T03:21:05.498Z,100800.13
2023-01-28T03:23:58.059Z,100797.91
2023-01-28T03:26:47.056Z,100798.34
2023-01-28T03:29:33.939Z,100782.00
2023-01-28T03:32:24.606Z,100787.00
2023-01-28T03:35:11.763Z,100801.00
2023-01-28T03:37:39.083Z,100789.78
2023-01-28T03:40:14.568Z,100800.31
2023-01-28T03:42:43.279Z,100783.22
2023-01-28T03:45:23.300Z,100784.34
2023-01-28T03:47:50.467Z,100792.34
2023-01-28T03:50:17.746Z,100806.75
2023-01-28T03:52:55.175Z,100800.66
2023-01-28T03:55:27.541Z,100795.44
2023-01-28T03:57:54.684Z,100805.97
2023-01-28T04:00:22.119Z,100801.31
2023-01-28T04:02:49.868Z,100804.84
2023-01-28T04:05:20.369Z,100807.50
2023-01-28T04:07:51.762Z,100800.59
2023-01-28T04:10:40.089Z,100796.59
2023-01-28T04:13:19.389Z,100781.38
2023-01-28T04:15:47.385Z,100801.47
2023-01-28T04:18:16.063Z,100796.69
2023-01-28T04:20:43.316Z,100803.53
2023-01-28T04:23:10.783Z,100776.13
2023-01-28T04:25:37.824Z,100805.09
2023-01-28T04:28:08.133Z,100808.84
2023-01-28T04:30:35.221Z,100809.47
2023-01-28T04:33:14.576Z,100808.78
2023-01-28T04:36:11.948Z,100795.69
2023-01-28T04:39:05.078Z,100809.66
2023-01-28T04:41:38.387Z,100798.47
2023-01-28T04:44:17.365Z,100807.69
2023-01-28T04:47:10.655Z,100805.72
2023-01-28T04:49:56.407Z,100807.22
2023-01-28T04:52:52.123Z,100803.88
2023-01-28T04:55:37.468Z,100811.22
2023-01-28T04:58:05.563Z,100792.94
2023-01-28T05:00:34.030Z,100828.16
2023-01-28T05:03:01.255Z,100817.84
2023-01-28T05:05:28.280Z,100820.53
2023-01-28T05:07:59.406Z,100811.94
2023-01-28T05:10:27.637Z,100835.91
2023-01-28T05:12:55.549Z,100841.91
2023-01-28T05:15:22.684Z,100826.25
2023-01-28T05:17:51.265Z,100797.16
2023-01-28T05:20:22.288Z,100836.63
2023-01-28T05:22:50.344Z,100841.25
2023-01-28T05:25:23.191Z,100809.13
2023-01-28T05:27:53.167Z,100838.22
2023-01-28T05:30:21.145Z,100838.00
2023-01-28T05:32:48.790Z,100825.19
2023-01-28T05:35:20.504Z,100850.63
2023-01-28T05:37:47.658Z,100842.72
2023-01-28T05:40:15.482Z,100819.69
2023-01-28T05:42:43.808Z,100833.53
2023-01-28T05:45:24.421Z,100819.78
2023-01-28T05:48:04.501Z,100845.22
2023-01-28T05:50:50.232Z,100844.56
2023-01-28T05:53:21.881Z,100833.59
2023-01-28T05:55:51.685Z,100834.69
2023-01-28T05:58:18.994Z,100847.69
2023-01-28T06:00:46.133Z,100854.56
2023-01-28T06:03:14.553Z,100860.41
2023-01-28T06:05:43.295Z,100859.75
2023-01-28T06:08:10.433Z,100865.25
2023-01-28T06:10:37.818Z,100856.78
2023-01-28T06:13:04.793Z,100871.13
2023-01-28T06:15:57.829Z,100866.03
2023-01-28T06:18:34.879Z,100839.84
2023-01-28T06:21:01.969Z,100855.13
2023-01-28T06:23:28.947Z,100864.66
2023-01-28T06:25:57.774Z,100861.63
2023-01-28T06:28:26.239Z,100861.09
2023-01-28T06:30:53.722Z,100872.19
2023-01-28T06:33:21.545Z,100804.22
2023-01-28T06:35:48.931Z,100869.13
2023-01-28T06:38:16.190Z,100872.56
2023-01-28T06:40:43.142Z,100858.38
2023-01-28T06:43:10.138Z,100865.38
2023-01-28T06:45:37.207Z,100884.19
2023-01-28T06:48:05.677Z,100887.50
2023-01-28T06:50:34.249Z,100840.97
2023-01-28T06:53:01.195Z,100829.91
2023-01-28T06:55:28.219Z,100870.06
2023-01-28T06:57:55.142Z,100889.50
2023-01-28T07:00:22.180Z,100879.22
2023-01-28T07:02:49.263Z,100888.22
2023-01-28T07:05:16.348Z,100881.09
2023-01-28T07:07:43.374Z,100875.00
2023-01-28T07:10:11.285Z,100853.13
2023-01-28T07:12:38.225Z,100887.16
2023-01-28T07:15:05.754Z,100888.72
2023-01-28T07:17:32.777Z,100877.38
2023-01-28T07:19:59.915Z,100883.84
2023-01-28T07:22:26.871Z,100871.88
2023-01-28T07:24:53.812Z,100874.16
2023-01-28T07:27:20.748Z,100884.34
2023-01-28T07:29:47.693Z,100890.59
2023-01-28T07:32:14.801Z,100890.47
2023-01-28T07:34:43.242Z,100865.81
2023-01-28T07:37:10.373Z,100891.22
2023-01-28T07:39:37.345Z,100887.44
2023-01-28T07:42:04.947Z,100891.88
2023-01-28T07:44:37.061Z,100862.47
2023-01-28T07:47:04.216Z,100883.94
2023-01-28T07:49:31.285Z,100883.94
2023-01-28T07:51:58.238Z,100885.59
2023-01-28T07:54:25.195Z,100863.47
2023-01-28T07:56:52.172Z,100883.84
2023-01-28T07:59:19.386Z,100868.06
2023-01-28T08:01:46.404Z,100887.50
2023-01-28T08:04:13.493Z,100886.59
2023-01-28T08:06:40.532Z,100877.56
2023-01-28T08:09:08.562Z,100866.63
2023-01-28T08:11:38.844Z,100869.06
2023-01-28T08:14:05.974Z,100879.75
2023-01-28T08:16:33.001Z,100884.44
2023-01-28T08:18:59.992Z,100867.00
2023-01-28T08:21:27.094Z,100872.09
2023-01-28T08:23:54.969Z,100879.44
2023-01-28T08:26:21.984Z,100878.38
2023-01-28T08:28:51.262Z,100821.63
2023-01-28T08:31:18.900Z,100873.44
2023-01-28T08:33:46.062Z,100876.03
2023-01-28T08:36:13.205Z,100866.88
2023-01-28T08:38:40.191Z,100839.69
2023-01-28T08:41:07.162Z,100865.63
2023-01-28T08:43:34.214Z,100847.81
2023-01-28T08:46:01.236Z,100839.06
2023-01-28T08:48:28.328Z,100862.28
2023-01-28T08:50:58.879Z,100867.97
2023-01-28T08:53:25.921Z,100865.63
2023-01-28T08:55:54.227Z,100860.88
2023-01-28T08:58:21.315Z,100863.44
2023-01-28T09:00:48.601Z,100822.13
2023-01-28T09:03:15.845Z,100862.00
2023-01-28T09:05:42.871Z,100846.00
2023-01-28T09:08:14.963Z,100853.97
2023-01-28T09:10:42.914Z,100857.19
2023-01-28T09:13:12.934Z,100835.44
2023-01-28T09:15:40.530Z,100833.25
2023-01-28T09:18:07.673Z,100855.50
2023-01-28T09:20:34.690Z,100800.78
2023-01-28T09:23:02.549Z,100859.97
2023-01-28T09:25:29.714Z,100859.84
2023-01-28T09:27:57.755Z,100837.34
2023-01-28T09:30:24.976Z,100854.25
2023-01-28T09:32:53.752Z,100855.25
2023-01-28T09:35:21.207Z,100835.25
2023-01-28T09:37:49.050Z,100847.28
2023-01-28T09:40:33.353Z,100806.13
2023-01-28T09:43:09.437Z,100844.63
2023-01-28T09:45:44.781Z,100835.91
2023-01-28T09:48:30.962Z,100827.47
2023-01-28T09:50:58.684Z,100823.78
2023-01-28T09:53:37.128Z,100839.00
2023-01-28T09:56:08.462Z,100823.47
2023-01-28T09:58:35.566Z,100821.38
2023-01-28T10:01:09.227Z,100835.19
2023-01-28T10:03:38.890Z,100833.31
2023-01-28T10:06:37.017Z,100823.91
2023-01-28T10:09:24.205Z,100825.09
2023-01-28T10:12:30.332Z,100832.22
2023-01-28T10:15:34.414Z,100823.25
2023-01-28T10:18:17.542Z,100817.38
2023-01-28T10:20:51.222Z,100815.47
2023-01-28T10:23:22.520Z,100816.91
2023-01-28T10:25:49.615Z,100813.00
2023-01-28T10:28:30.086Z,100809.34
2023-01-28T10:30:57.442Z,100817.41
2023-01-28T10:33:37.441Z,100814.53
2023-01-28T10:36:05.055Z,100805.69
2023-01-28T10:38:32.320Z,100773.31
2023-01-28T10:41:04.239Z,100795.69
2023-01-28T10:43:35.695Z,100794.13
2023-01-28T10:46:05.656Z,100800.78
2023-01-28T10:48:42.879Z,100793.34
2023-01-28T10:51:09.960Z,100782.72
2023-01-28T10:53:42.872Z,100787.53
2023-01-28T10:56:25.225Z,100789.06
2023-01-28T10:59:20.977Z,100766.78
2023-01-28T11:01:52.220Z,100771.22
2023-01-28T11:04:27.357Z,100776.13
2023-01-28T11:07:04.265Z,100783.00
2023-01-28T11:09:34.637Z,100779.91
2023-01-28T11:12:17.663Z,100766.81
2023-01-28T11:14:51.632Z,100764.72
2023-01-28T11:17:20.475Z,100762.06
2023-01-28T11:19:47.573Z,100770.81
2023-01-28T11:22:21.984Z,100770.59
2023-01-28T11:24:49.106Z,100770.84
2023-01-28T11:27:18.740Z,100769.38
2023-01-28T11:29:45.961Z,100766.94
2023-01-28T11:32:31.716Z,100737.56
2023-01-28T11:35:00.525Z,100764.38
2023-01-28T11:37:29.329Z,100745.53
2023-01-28T11:40:21.236Z,100758.66
2023-01-28T11:42:51.275Z,100752.41
2023-01-28T11:45:28.481Z,100756.31
2023-01-28T11:48:01.271Z,100755.66
2023-01-28T11:50:43.434Z,100724.22
2023-01-28T11:53:46.768Z,100743.25
2023-01-28T11:56:30.839Z,100731.81
2023-01-28T11:59:07.102Z,100731.00
2023-01-28T12:01:46.728Z,100731.69
2023-01-28T12:04:18.910Z,100721.47
2023-01-28T12:07:19.963Z,100734.00
2023-01-28T12:09:57.922Z,100729.03
2023-01-28T12:12:55.068Z,100725.72
2023-01-28T12:15:41.183Z,100723.38
2023-01-28T12:18:18.681Z,100721.28
2023-01-28T12:20:49.511Z,100719.25
2023-01-28T12:23:38.637Z,100720.25
2023-01-28T12:26:35.794Z,100723.81
2023-01-28T12:29:19.549Z,100718.38
2023-01-28T12:32:43.772Z,100716.03
2023-01-28T12:35:39.181Z,100698.28
2023-01-28T12:38:15.323Z,100711.06
2023-01-28T12:41:18.493Z,100710.84
2023-01-28T12:44:02.118Z,100705.97
2023-01-28T12:46:35.919Z,100688.41
2023-01-28T12:49:10.399Z,100702.97
2023-01-28T12:51:54.855Z,100694.97
2023-01-28T12:54:30.761Z,100693.00
2023-01-28T12:56:58.449Z,100682.09
2023-01-28T12:59:49.662Z,100691.97
2023-01-28T13:02:21.960Z,100680.44
2023-01-28T13:05:00.690Z,100698.19
2023-01-28T13:07:46.263Z,100696.41
2023-01-28T13:10:28.219Z,100684.56
2023-01-28T13:12:57.023Z,100697.97
2023-01-28T13:15:25.438Z,100676.78
2023-01-28T13:18:04.700Z,100706.38
2023-01-28T13:20:54.156Z,100699.63
2023-01-28T13:23:24.528Z,100696.63
2023-01-28T13:25:55.736Z,100704.41
2023-01-28T13:28:31.644Z,100698.19
2023-01-28T13:31:17.414Z,100695.19
2023-01-28T13:33:48.895Z,100685.88
2023-01-28T13:36:24.127Z,100685.34
2023-01-28T13:39:14.735Z,100665.38
2023-01-28T13:41:53.557Z,100644.63
2023-01-28T13:44:26.330Z,100689.09
2023-01-28T13:47:14.848Z,100679.47
2023-01-28T13:49:56.886Z,100656.72
2023-01-28T13:52:33.185Z,100686.06
2023-01-28T13:55:25.956Z,100679.31
2023-01-28T13:58:09.222Z,100682.53
2023-01-28T14:01:14.159Z,100671.00
2023-01-28T14:03:58.630Z,100667.44
2023-01-28T14:06:25.606Z,100661.47
2023-01-28T14:09:11.285Z,100658.59
2023-01-28T14:11:53.091Z,100661.91
2023-01-28T14:14:34.892Z,100653.25
2023-01-28T14:17:08.171Z,100649.84
2023-01-28T14:19:37.952Z,100638.41
2023-01-28T14:22:09.607Z,100634.19
2023-01-28T14:24:40.665Z,100635.41
2023-01-28T14:27:19.614Z,100650.59
2023-01-28T14:30:05.238Z,100652.72
2023-01-28T14:32:34.232Z,100649.06
2023-01-28T14:35:08.480Z,100645.50
2023-01-28T14:37:35.934Z,100614.47
2023-01-28T14:40:06.198Z,100628.00
2023-01-28T14:42:41.716Z,100640.22
2023-01-28T14:45:30.563Z,100638.41
2023-01-28T14:48:00.564Z,100654.03
2023-01-28T14:50:52.412Z,100650.59
2023-01-28T14:53:25.466Z,100647.72
2023-01-28T14:55:58.940Z,100646.81
2023-01-28T14:58:32.600Z,100635.09
2023-01-28T15:01:01.020Z,100642.84
2023-01-28T15:03:29.871Z,100589.16
2023-01-28T15:06:20.977Z,100639.44
2023-01-28T15:08:48.626Z,100632.31
2023-01-28T15:11:21.077Z,100642.19
2023-01-28T15:13:51.342Z,100627.13
2023-01-28T15:16:23.100Z,100626.56
2023-01-28T15:18:51.148Z,100633.78
2023-01-28T15:21:23.356Z,100635.66
2023-01-28T15:23:54.922Z,100639.75
2023-01-28T15:26:24.796Z,100621.13
2023-01-28T15:28:53.001Z,100627.34
2023-01-28T15:31:29.096Z,100620.03
2023-01-28T15:34:11.236Z,100620.38
2023-01-28T15:36:38.967Z,100620.22
2023-01-28T15:39:23.921Z,100567.47
2023-01-28T15:42:02.211Z,100632.66
2023-01-28T15:44:35.963Z,100610.59
2023-01-28T15:47:17.903Z,100592.41
2023-01-28T15:49:48.751Z,100527.59
2023-01-28T15:52:15.927Z,100608.59
2023-01-28T15:54:45.870Z,100619.25
2023-01-28T15:57:19.000Z,100614.25
2023-01-28T15:59:47.539Z,100610.59
2023-01-28T16:02:18.561Z,100605.59
2023-01-28T16:05:00.514Z,100594.75
2023-01-28T16:07:30.821Z,100574.13
2023-01-28T16:10:02.265Z,100601.06
2023-01-28T16:12:31.169Z,100601.84
2023-01-28T16:15:01.386Z,100594.09
2023-01-28T16:17:39.009Z,100539.69
2023-01-28T16:20:09.639Z,100584.00
2023-01-28T16:22:39.333Z,100591.22
2023-01-28T16:25:21.346Z,100586.88
2023-01-28T16:27:48.600Z,100584.13
2023-01-28T16:30:16.877Z,100534.47
2023-01-28T16:32:44.372Z,100583.56
2023-01-28T16:35:21.982Z,100586.53
2023-01-28T16:37:49.984Z,100579.03
2023-01-28T16:40:19.990Z,100585.75
2023-01-28T16:42:50.508Z,100580.81
2023-01-28T16:45:21.007Z,100579.13
2023-01-28T16:47:48.062Z,100575.25
2023-01-28T16:50:15.922Z,100570.59
2023-01-28T16:52:45.266Z,100570.81
2023-01-28T16:55:19.179Z,100577.91
2023-01-28T16:57:49.072Z,100559.63
2023-01-28T17:00:18.509Z,100564.94
2023-01-28T17:02:45.678Z,100567.72
2023-01-28T17:05:12.950Z,100552.00
2023-01-28T17:07:39.952Z,100554.44
2023-01-28T17:10:07.553Z,100554.75
2023-01-28T17:12:34.817Z,100559.06
2023-01-28T17:15:04.005Z,100538.25
2023-01-28T17:17:31.716Z,100561.31
2023-01-28T17:19:58.855Z,100560.75
2023-01-28T17:22:25.857Z,100565.16
2023-01-28T17:24:52.828Z,100556.19
2023-01-28T17:27:19.811Z,100555.41
2023-01-28T17:29:46.780Z,100519.84
2023-01-28T17:32:13.778Z,100560.63
2023-01-28T17:34:40.797Z,100550.00
2023-01-28T17:37:07.724Z,100519.19
2023-01-28T17:39:34.666Z,100544.78
2023-01-28T17:42:01.657Z,100531.25
2023-01-28T17:44:28.686Z,100547.00
2023-01-28T17:46:55.637Z,100540.38
2023-01-28T17:49:22.645Z,100503.00
2023-01-28T17:51:49.623Z,100542.91
2023-01-28T17:54:17.094Z,100540.56
2023-01-28T17:56:44.107Z,100538.91
2023-01-28T17:59:11.787Z,100542.34
2023-01-28T18:01:38.778Z,100543.13
2023-01-28T18:04:05.828Z,100532.13
2023-01-28T18:06:35.731Z,100535.81
2023-01-28T18:09:03.749Z,100536.69
2023-01-28T18:11:32.225Z,100522.28
2023-01-28T18:13:59.173Z,100505.44
2023-01-28T18:16:26.176Z,100525.16
2023-01-28T18:18:53.166Z,100510.22
2023-01-28T18:21:51.362Z,100504.34
2023-01-28T18:24:19.774Z,100513.50
2023-01-28T18:26:46.911Z,100509.63
2023-01-28T18:29:17.170Z,100510.19
2023-01-28T18:31:44.681Z,100522.28
2023-01-28T18:34:12.713Z,100514.28
2023-01-28T18:36:39.715Z,100511.06
2023-01-28T18:39:06.657Z,100493.66
2023-01-28T18:41:33.718Z,100476.41
2023-01-28T18:44:00.834Z,100504.28
2023-01-28T18:46:27.826Z,100481.25
2023-01-28T18:48:57.448Z,100498.63
2023-01-28T18:51:30.386Z,100494.88
2023-01-28T18:54:02.921Z,100490.31
2023-01-28T18:56:30.851Z,100471.41
2023-01-28T18:58:59.998Z,100482.16
2023-01-28T19:01:27.679Z,100486.34
2023-01-28T19:03:55.694Z,100486.94
2023-01-28T19:06:23.268Z,100482.38
2023-01-28T19:08:59.430Z,100482.28
2023-01-28T19:11:28.274Z,100481.16
2023-01-28T19:13:55.465Z,100472.09
2023-01-28T19:16:22.667Z,100474.84
2023-01-28T19:19:00.866Z,100470.63
2023-01-28T19:21:29.790Z,100460.56
2023-01-28T19:24:02.593Z,100481.06
2023-01-28T19:26:31.300Z,100466.75
2023-01-28T19:28:58.956Z,100441.81
2023-01-28T19:31:27.208Z,100476.78
2023-01-28T19:33:59.206Z,100469.03
2023-01-28T19:36:28.430Z,100440.72
2023-01-28T19:39:03.771Z,100468.59
2023-01-28T19:41:31.183Z,100471.94
2023-01-28T19:43:58.705Z,100473.59
2023-01-28T19:46:26.529Z,100481.69
2023-01-28T19:48:54.398Z,100470.19
2023-01-28T19:51:22.785Z,100447.84
2023-01-28T19:53:51.616Z,100456.13
2023-01-28T19:56:19.839Z,100453.66
2023-01-28T19:58:47.432Z,100455.56
2023-01-28T20:01:18.476Z,100447.69
2023-01-28T20:03:46.135Z,100457.00
2023-01-28T20:06:16.624Z,100444.50
2023-01-28T20:08:44.747Z,100458.34
2023-01-28T20:11:15.411Z,100435.66
2023-01-28T20:13:44.723Z,100436.97
2023-01-28T20:16:20.934Z,100404.44
2023-01-28T20:18:53.692Z,100439.06
2023-01-28T20:21:21.615Z,100435.41
2023-01-28T20:23:51.682Z,100419.13
2023-01-28T20:26:21.375Z,100400.19
2023-01-28T20:28:49.487Z,100421.84
2023-01-28T20:31:17.479Z,100425.19
2023-01-28T20:33:44.919Z,100408.47
2023-01-28T20:36:14.527Z,100425.41
2023-01-28T20:38:44.109Z,100350.41
2023-01-28T20:41:16.524Z,100418.75
2023-01-28T20:43:49.252Z,100421.41
2023-01-28T20:46:29.708Z,100406.88
2023-01-28T20:49:03.335Z,100410.22
2023-01-28T20:51:35.892Z,100409.44
2023-01-28T20:54:03.526Z,100418.06
2023-01-28T20:56:31.323Z,100410.50
2023-01-28T20:59:04.374Z,100402.88
2023-01-28T21:01:34.280Z,100392.38
2023-01-28T21:04:02.218Z,100412.72
2023-01-28T21:06:29.820Z,100388.06
2023-01-28T21:09:11.221Z,100405.84
2023-01-28T21:12:00.045Z,100398.19
2023-01-28T21:14:27.034Z,100399.84
2023-01-28T21:16:54.093Z,100396.75
2023-01-28T21:19:21.185Z,100390.31
2023-01-28T21:21:48.217Z,100385.22
2023-01-28T21:24:15.212Z,100367.22
2023-01-28T21:26:42.271Z,100357.91
2023-01-28T21:29:09.359Z,100370.88
2023-01-28T21:31:38.084Z,100378.94
2023-01-28T21:34:05.032Z,100357.81
2023-01-28T21:36:33.999Z,100311.34
2023-01-28T21:39:01.669Z,100362.97
2023-01-28T21:41:31.531Z,100328.19
2023-01-28T21:43:59.115Z,100361.28
2023-01-28T21:46:29.337Z,100371.59
2023-01-28T21:49:01.673Z,100363.38
2023-01-28T21:51:46.417Z,100363.59
2023-01-28T21:54:19.474Z,100352.88
2023-01-28T21:56:49.464Z,100358.63
2023-01-28T21:59:29.776Z,100363.81
2023-01-28T22:02:05.199Z,100345.25
2023-01-28T22:04:35.137Z,100328.22
2023-01-28T22:07:04.314Z,100342.50
2023-01-28T22:09:33.545Z,100294.53
2023-01-28T22:12:03.497Z,100342.28
2023-01-28T22:14:30.811Z,100353.50
2023-01-28T22:16:57.804Z,100346.22
2023-01-28T22:19:24.918Z,100335.69
2023-01-28T22:21:52.102Z,100329.91
2023-01-28T22:24:22.608Z,100314.97
2023-01-28T22:26:49.810Z,100334.75
2023-01-28T22:29:19.032Z,100338.19
2023-01-28T22:31:47.465Z,100343.28
2023-01-28T22:34:15.309Z,100321.00
2023-01-28T22:36:42.725Z,100179.81
2023-01-28T22:39:13.862Z,100316.00
2023-01-28T22:41:41.941Z,100313.34
2023-01-28T22:44:09.039Z,100319.72
2023-01-28T22:46:37.741Z,100315.41
2023-01-28T22:49:05.609Z,100296.75
2023-01-28T22:51:35.209Z,100267.63
2023-01-28T22:54:02.566Z,100289.03
2023-01-28T22:56:30.779Z,100296.50
2023-01-28T22:58:59.829Z,100277.16
2023-01-28T23:01:26.904Z,100289.72
2023-01-28T23:03:56.270Z,100289.81
2023-01-28T23:06:25.458Z,100278.13
2023-01-28T23:08:52.648Z,100280.50
2023-01-28T23:11:25.711Z,100279.16
2023-01-28T23:14:14.456Z,100273.25
2023-01-28T23:17:00.170Z,100274.44
2023-01-28T23:19:45.853Z,100260.66
2023-01-28T23:22:35.324Z,100269.13
2023-01-28T23:25:02.292Z,100271.59
2023-01-28T23:27:30.151Z,100266.16
2023-01-28T23:29:57.128Z,100265.50
2023-01-28T23:32:24.117Z,100267.03
2023-01-28T23:34:51.154Z,100264.09
2023-01-28T23:37:18.494Z,100262.25
2023-01-28T23:39:45.481Z,100259.69
2023-01-28T23:42:17.693Z,100189.72
2023-01-28T23:44:44.906Z,100248.22
2023-01-28T23:47:11.914Z,100258.13
2023-01-28T23:49:39.403Z,100187.56
2023-01-28T23:52:07.412Z,100248.03
2023-01-28T23:54:34.830Z,100202.88
2023-01-28T23:57:02.653Z,100239.97
2023-01-28T23:59:29.908Z,100238.09
